createdAt,value
2022-09-12T00:01:54.353Z,14.54
2022-09-12T00:04:21.316Z,14.45
2022-09-12T00:06:48.099Z,14.43
2022-09-12T00:09:15.767Z,14.34
2022-09-12T00:11:45.445Z,14.36
2022-09-12T00:14:15.631Z,14.47
2022-09-12T00:16:42.930Z,14.58
2022-09-12T00:19:11.385Z,14.63
2022-09-12T00:21:39.862Z,14.38
2022-09-12T00:24:06.825Z,14.04
2022-09-12T00:26:33.803Z,14.01
2022-09-12T00:29:00.583Z,13.74
2022-09-12T00:31:28.429Z,13.72
2022-09-12T00:33:57.679Z,14.02
2022-09-12T00:36:26.338Z,14.05
2022-09-12T00:38:54.668Z,14.12
2022-09-12T00:41:22.958Z,14.17
2022-09-12T00:43:52.550Z,14.28
2022-09-12T00:46:28.153Z,14.25
2022-09-12T00:49:00.692Z,14.18
2022-09-12T00:51:30.724Z,14.29
2022-09-12T00:53:59.568Z,14.17
2022-09-12T00:56:28.029Z,13.61
2022-09-12T00:59:02.504Z,13.86
2022-09-12T01:01:32.335Z,13.44
2022-09-12T01:03:59.560Z,13.40
2022-09-12T01:06:29.074Z,13.38
2022-09-12T01:08:56.779Z,13.00
2022-09-12T01:11:23.992Z,13.30
2022-09-12T01:13:51.066Z,13.54
2022-09-12T01:16:18.372Z,13.68
2022-09-12T01:18:55.682Z,13.69
2022-09-12T01:22:00.010Z,13.73
2022-09-12T01:24:32.662Z,13.75
2022-09-12T01:27:16.788Z,13.75
2022-09-12T01:30:13.829Z,13.66
2022-09-12T01:32:52.367Z,13.38
2022-09-12T01:35:56.713Z,13.44
2022-09-12T01:38:43.565Z,13.43
2022-09-12T01:41:35.465Z,13.46
2022-09-12T01:44:39.436Z,13.38
2022-09-12T01:47:14.707Z,13.29
2022-09-12T01:49:59.507Z,13.15
2022-09-12T01:52:36.722Z,13.29
2022-09-12T01:55:26.547Z,13.22
2022-09-12T01:58:00.286Z,12.91
2022-09-12T02:00:27.154Z,12.98
2022-09-12T02:03:08.412Z,12.94
2022-09-12T02:05:40.482Z,13.04
2022-09-12T02:08:09.575Z,12.98
2022-09-12T02:10:59.582Z,13.02
2022-09-12T02:13:32.180Z,13.02
2022-09-12T02:16:08.720Z,13.06
2022-09-12T02:18:40.061Z,12.99
2022-09-12T02:21:08.067Z,12.96
2022-09-12T02:23:39.698Z,13.01
2022-09-12T02:26:16.227Z,12.80
2022-09-12T02:28:43.734Z,12.64
2022-09-12T02:31:19.761Z,12.79
2022-09-12T02:34:13.497Z,12.73
2022-09-12T02:37:02.985Z,12.59
2022-09-12T02:39:29.794Z,12.57
2022-09-12T02:42:00.432Z,12.46
2022-09-12T02:44:29.977Z,12.27
2022-09-12T02:47:20.551Z,12.19
2022-09-12T02:49:47.704Z,12.36
2022-09-12T02:52:15.137Z,12.48
2022-09-12T02:54:43.681Z,12.47
2022-09-12T02:57:22.346Z,12.06
2022-09-12T02:59:55.817Z,11.93
2022-09-12T03:02:32.798Z,12.08
2022-09-12T03:05:21.620Z,12.08
2022-09-12T03:08:04.314Z,12.30
2022-09-12T03:11:03.261Z,12.15
2022-09-12T03:13:48.736Z,11.97
2022-09-12T03:16:34.208Z,12.04
2022-09-12T03:19:14.526Z,11.94
2022-09-12T03:22:07.393Z,11.99
2022-09-12T03:24:54.707Z,12.16
2022-09-12T03:27:46.767Z,12.13
2022-09-12T03:30:13.613Z,11.98
2022-09-12T03:32:51.708Z,12.03
2022-09-12T03:35:22.988Z,11.82
2022-09-12T03:37:51.571Z,12.00
2022-09-12T03:40:18.639Z,12.32
2022-09-12T03:42:45.302Z,12.44
2022-09-12T03:45:12.042Z,12.47
2022-09-12T03:47:39.625Z,12.37
2022-09-12T03:50:07.153Z,12.20
2022-09-12T03:52:33.806Z,12.19
2022-09-12T03:55:00.985Z,12.33
2022-09-12T03:57:27.676Z,11.95
2022-09-12T03:59:54.403Z,11.96
2022-09-12T04:02:21.271Z,11.89
2022-09-12T04:04:48.905Z,12.04
2022-09-12T04:07:17.131Z,12.06
2022-09-12T04:09:43.858Z,11.82
2022-09-12T04:12:10.789Z,11.85
2022-09-12T04:14:37.531Z,11.74
2022-09-12T04:17:04.411Z,11.69
2022-09-12T04:19:31.108Z,11.83
2022-09-12T04:21:58.014Z,11.84
2022-09-12T04:24:24.833Z,11.85
2022-09-12T04:26:51.537Z,11.99
2022-09-12T04:29:18.216Z,12.07
2022-09-12T04:31:45.046Z,12.20
2022-09-12T04:34:13.335Z,12.19
2022-09-12T04:36:40.024Z,12.11
2022-09-12T04:39:07.893Z,12.01
2022-09-12T04:41:37.229Z,12.17
2022-09-12T04:44:11.200Z,11.96
2022-09-12T04:46:40.891Z,11.88
2022-09-12T04:49:07.984Z,12.16
2022-09-12T04:51:37.166Z,11.81
2022-09-12T04:54:07.075Z,11.72
2022-09-12T04:56:40.643Z,11.73
2022-09-12T04:59:08.850Z,11.86
2022-09-12T05:01:36.071Z,11.69
2022-09-12T05:04:03.867Z,11.75
2022-09-12T05:06:34.595Z,11.81
2022-09-12T05:09:02.950Z,11.82
2022-09-12T05:12:00.114Z,12.12
2022-09-12T05:14:19.636Z,11.97
2022-09-12T05:16:49.363Z,11.68
2022-09-12T05:19:16.347Z,12.11
2022-09-12T05:21:43.001Z,12.35
2022-09-12T05:24:11.563Z,13.04
2022-09-12T05:26:38.587Z,14.47
2022-09-12T05:29:07.230Z,16.39
2022-09-12T05:31:34.940Z,18.23
2022-09-12T05:34:04.681Z,20.30
2022-09-12T05:36:31.564Z,20.76
2022-09-12T05:38:59.947Z,21.57
2022-09-12T05:41:30.873Z,20.05
2022-09-12T05:43:59.529Z,19.53
2022-09-12T05:46:31.759Z,17.73
2022-09-12T05:49:04.001Z,20.09
2022-09-12T05:51:34.136Z,20.92
2022-09-12T05:54:06.166Z,21.78
2022-09-12T05:56:34.785Z,23.33
2022-09-12T05:59:04.796Z,24.23
2022-09-12T06:01:33.465Z,24.71
2022-09-12T06:04:02.159Z,25.27
2022-09-12T06:06:30.656Z,25.71
2022-09-12T06:08:59.915Z,24.66
2022-09-12T06:11:28.845Z,23.84
2022-09-12T06:13:57.160Z,24.38
2022-09-12T06:16:34.409Z,21.23
2022-09-12T06:19:04.118Z,22.61
2022-09-12T06:21:31.441Z,25.34
2022-09-12T06:23:58.963Z,26.50
2022-09-12T06:26:27.401Z,22.13
2022-09-12T06:28:56.391Z,21.73
2022-09-12T06:31:29.377Z,23.84
2022-09-12T06:33:57.388Z,26.40
2022-09-12T06:36:29.231Z,25.55
2022-09-12T06:38:58.266Z,25.88
2022-09-12T06:41:26.082Z,25.94
2022-09-12T06:43:53.842Z,26.33
2022-09-12T06:46:21.247Z,26.69
2022-09-12T06:48:48.206Z,27.78
2022-09-12T06:51:17.191Z,26.39
2022-09-12T06:53:45.370Z,24.40
2022-09-12T06:56:14.757Z,23.68
2022-09-12T06:58:43.033Z,24.92
2022-09-12T07:01:15.495Z,25.31
2022-09-12T07:03:43.796Z,25.36
2022-09-12T07:06:13.823Z,26.02
2022-09-12T07:08:41.128Z,26.01
2022-09-12T07:11:16.261Z,25.58
2022-09-12T07:13:44.484Z,24.69
2022-09-12T07:16:14.838Z,23.36
2022-09-12T07:18:46.223Z,23.66
2022-09-12T07:21:15.034Z,23.66
2022-09-12T07:23:42.174Z,21.88
2022-09-12T07:26:11.729Z,22.43
2022-09-12T07:28:38.865Z,24.36
2022-09-12T07:31:11.825Z,25.76
2022-09-12T07:33:39.301Z,25.40
2022-09-12T07:36:08.779Z,25.60
2022-09-12T07:38:35.483Z,27.85
2022-09-12T07:41:10.119Z,24.88
2022-09-12T07:43:36.852Z,22.95
2022-09-12T07:46:03.677Z,24.39
2022-09-12T07:48:30.325Z,22.87
2022-09-12T07:51:02.022Z,23.93
2022-09-12T07:53:34.117Z,25.91
2022-09-12T07:56:01.074Z,27.04
2022-09-12T07:58:27.722Z,25.90
2022-09-12T08:00:54.349Z,25.43
2022-09-12T08:03:20.954Z,23.69
2022-09-12T08:05:47.663Z,22.25
2022-09-12T08:08:14.854Z,22.41
2022-09-12T08:10:41.816Z,22.64
2022-09-12T08:13:10.725Z,22.45
2022-09-12T08:15:37.606Z,23.70
2022-09-12T08:18:04.463Z,24.56
2022-09-12T08:20:31.149Z,23.70
2022-09-12T08:22:57.844Z,24.15
2022-09-12T08:25:24.508Z,24.09
2022-09-12T08:27:51.366Z,25.31
2022-09-12T08:30:18.061Z,25.15
2022-09-12T08:32:44.711Z,24.25
2022-09-12T08:35:12.067Z,21.74
2022-09-12T08:37:40.611Z,21.59
2022-09-12T08:40:09.279Z,22.55
2022-09-12T08:43:03.713Z,23.63
2022-09-12T08:45:50.921Z,23.85
2022-09-12T08:48:17.979Z,25.63
2022-09-12T08:50:49.334Z,26.60
2022-09-12T08:53:21.580Z,26.26
2022-09-12T08:55:59.503Z,24.15
2022-09-12T08:58:29.089Z,22.59
2022-09-12T09:01:35.848Z,22.52
2022-09-12T09:04:37.694Z,22.58
2022-09-12T09:07:56.667Z,25.83
2022-09-12T09:10:53.139Z,25.45
2022-09-12T09:14:05.413Z,25.53
2022-09-12T09:16:36.514Z,26.73
2022-09-12T09:19:11.085Z,27.41
2022-09-12T09:21:42.704Z,27.41
2022-09-12T09:24:13.003Z,27.94
2022-09-12T09:26:49.467Z,27.17
2022-09-12T09:29:19.525Z,26.28
2022-09-12T09:31:53.345Z,26.88
2022-09-12T09:34:24.435Z,24.46
2022-09-12T09:37:01.720Z,26.58
2022-09-12T09:39:53.340Z,27.35
2022-09-12T09:42:32.027Z,26.63
2022-09-12T09:45:03.175Z,24.97
2022-09-12T09:47:29.860Z,25.14
2022-09-12T09:49:56.996Z,24.78
2022-09-12T09:52:30.973Z,24.84
2022-09-12T09:55:01.681Z,24.10
2022-09-12T09:57:34.423Z,23.19
2022-09-12T10:00:24.150Z,22.53
2022-09-12T10:03:13.588Z,22.93
2022-09-12T10:05:57.210Z,22.00
2022-09-12T10:08:26.374Z,22.36
2022-09-12T10:11:02.188Z,22.83
2022-09-12T10:13:36.661Z,22.22
2022-09-12T10:16:07.061Z,22.17
2022-09-12T10:18:42.711Z,21.80
2022-09-12T10:21:20.665Z,21.64
2022-09-12T10:23:51.940Z,21.46
2022-09-12T10:26:21.722Z,22.74
2022-09-12T10:28:54.964Z,23.38
2022-09-12T10:31:36.212Z,22.76
2022-09-12T10:34:03.144Z,22.68
2022-09-12T10:36:40.522Z,22.50
2022-09-12T10:39:13.300Z,22.40
2022-09-12T10:41:41.455Z,21.88
2022-09-12T10:44:15.802Z,21.79
2022-09-12T10:46:42.522Z,21.71
2022-09-12T10:49:24.353Z,22.05
2022-09-12T10:51:53.908Z,22.22
2022-09-12T10:54:23.892Z,23.18
2022-09-12T10:56:54.333Z,23.54
2022-09-12T10:59:42.543Z,23.54
2022-09-12T11:02:35.379Z,24.00
2022-09-12T11:05:13.899Z,23.30
2022-09-12T11:07:48.032Z,22.16
2022-09-12T11:10:27.056Z,21.95
2022-09-12T11:13:04.023Z,22.38
2022-09-12T11:15:55.109Z,23.29
2022-09-12T11:19:20.540Z,23.38
2022-09-12T11:22:18.075Z,23.50
2022-09-12T11:25:09.832Z,22.97
2022-09-12T11:28:21.215Z,23.82
2022-09-12T11:31:17.125Z,23.44
2022-09-12T11:33:50.225Z,24.01
2022-09-12T11:36:28.868Z,23.87
2022-09-12T11:39:04.005Z,23.66
2022-09-12T11:41:34.914Z,24.37
2022-09-12T11:44:16.942Z,24.02
2022-09-12T11:46:47.682Z,24.14
2022-09-12T11:49:21.266Z,24.70
2022-09-12T11:51:56.995Z,24.28
2022-09-12T11:54:26.559Z,23.55
2022-09-12T11:57:02.082Z,23.19
2022-09-12T11:59:40.570Z,23.32
2022-09-12T12:02:21.391Z,23.06
2022-09-12T12:05:10.105Z,23.23
2022-09-12T12:07:58.393Z,23.48
2022-09-12T12:10:51.369Z,22.87
2022-09-12T12:13:21.806Z,22.67
2022-09-12T12:15:53.631Z,22.77
2022-09-12T12:18:27.339Z,22.55
2022-09-12T12:20:56.459Z,22.21
2022-09-12T12:23:29.232Z,22.85
2022-09-12T12:26:00.958Z,23.01
2022-09-12T12:28:42.955Z,23.33
2022-09-12T12:31:10.840Z,23.55
2022-09-12T12:33:37.445Z,23.71
2022-09-12T12:36:08.015Z,24.03
2022-09-12T12:38:40.857Z,23.91
2022-09-12T12:41:19.408Z,23.48
2022-09-12T12:43:53.132Z,23.99
2022-09-12T12:46:25.695Z,23.76
2022-09-12T12:49:07.530Z,23.79
2022-09-12T12:51:43.229Z,23.55
2022-09-12T12:54:41.147Z,23.22
2022-09-12T12:57:16.911Z,23.25
2022-09-12T12:59:53.782Z,22.96
2022-09-12T13:02:41.161Z,23.21
2022-09-12T13:05:19.987Z,23.59
2022-09-12T13:07:48.331Z,23.41
2022-09-12T13:10:28.929Z,22.99
2022-09-12T13:13:03.612Z,22.92
2022-09-12T13:15:36.130Z,23.17
2022-09-12T13:18:07.058Z,23.19
2022-09-12T13:20:44.412Z,22.88
2022-09-12T13:23:26.196Z,22.67
2022-09-12T13:25:57.955Z,22.78
2022-09-12T13:28:26.642Z,22.53
2022-09-12T13:31:08.707Z,22.84
2022-09-12T13:33:45.548Z,22.54
2022-09-12T13:36:25.308Z,22.21
2022-09-12T13:39:14.269Z,22.42
2022-09-12T13:41:59.277Z,21.91
2022-09-12T13:44:27.343Z,22.00
2022-09-12T13:46:58.855Z,21.97
2022-09-12T13:49:35.090Z,22.12
2022-09-12T13:52:05.154Z,21.12
2022-09-12T13:54:33.113Z,20.72
2022-09-12T13:57:00.018Z,20.77
2022-09-12T13:59:26.697Z,20.91
2022-09-12T14:01:53.531Z,20.80
2022-09-12T14:04:45.115Z,20.87
2022-09-12T14:07:22.297Z,20.69
2022-09-12T14:10:00.646Z,20.81
2022-09-12T14:12:29.587Z,20.90
2022-09-12T14:14:56.992Z,20.82
2022-09-12T14:17:29.495Z,20.72
2022-09-12T14:19:59.513Z,20.50
2022-09-12T14:22:29.889Z,20.49
2022-09-12T14:24:59.644Z,20.41
2022-09-12T14:27:31.856Z,20.38
2022-09-12T14:30:09.374Z,20.44
2022-09-12T14:32:36.309Z,20.12
2022-09-12T14:35:20.157Z,19.97
2022-09-12T14:37:50.146Z,20.07
2022-09-12T14:40:19.851Z,19.91
2022-09-12T14:42:49.722Z,19.80
2022-09-12T14:45:36.682Z,19.59
2022-09-12T14:48:03.642Z,19.64
2022-09-12T14:50:35.381Z,19.56
2022-09-12T14:53:07.369Z,19.21
2022-09-12T14:55:42.229Z,19.30
2022-09-12T14:58:20.704Z,18.95
2022-09-12T15:00:59.270Z,18.96
2022-09-12T15:03:52.093Z,19.00
2022-09-12T15:06:23.630Z,18.94
2022-09-12T15:08:52.971Z,18.86
2022-09-12T15:11:19.614Z,18.79
2022-09-12T15:13:46.410Z,18.63
2022-09-12T15:16:13.487Z,18.68
2022-09-12T15:18:40.607Z,18.60
2022-09-12T15:21:11.284Z,18.57
2022-09-12T15:23:44.413Z,18.60
2022-09-12T15:26:16.808Z,18.64
2022-09-12T15:28:43.812Z,18.51
2022-09-12T15:31:24.953Z,18.39
2022-09-12T15:33:51.796Z,18.34
2022-09-12T15:36:20.974Z,18.36
2022-09-12T15:38:48.747Z,18.24
2022-09-12T15:41:21.891Z,18.43
2022-09-12T15:43:49.452Z,18.30
2022-09-12T15:46:17.782Z,18.32
2022-09-12T15:48:44.803Z,18.35
2022-09-12T15:51:16.463Z,18.31
2022-09-12T15:53:44.205Z,18.34
2022-09-12T15:56:11.781Z,18.21
2022-09-12T15:58:49.801Z,18.11
2022-09-12T16:01:24.551Z,18.04
2022-09-12T16:03:51.264Z,17.81
2022-09-12T16:06:17.990Z,17.94
2022-09-12T16:08:44.840Z,18.07
2022-09-12T16:11:21.200Z,18.08
2022-09-12T16:13:48.653Z,18.06
2022-09-12T16:16:15.441Z,17.92
2022-09-12T16:18:42.541Z,18.04
2022-09-12T16:21:14.207Z,18.13
2022-09-12T16:23:45.928Z,18.11
2022-09-12T16:26:13.003Z,18.11
2022-09-12T16:28:40.210Z,18.04
2022-09-12T16:31:08.551Z,17.83
2022-09-12T16:33:37.052Z,17.83
2022-09-12T16:36:07.439Z,17.68
2022-09-12T16:38:35.880Z,17.63
2022-09-12T16:41:04.954Z,17.30
2022-09-12T16:43:33.201Z,17.22
2022-09-12T16:46:24.921Z,17.27
2022-09-12T16:48:54.499Z,17.24
2022-09-12T16:51:27.736Z,17.22
2022-09-12T16:53:55.513Z,17.12
2022-09-12T16:56:23.142Z,16.96
2022-09-12T16:58:50.693Z,17.00
2022-09-12T17:01:23.504Z,17.05
2022-09-12T17:03:56.607Z,17.08
2022-09-12T17:06:25.205Z,16.90
2022-09-12T17:08:53.942Z,16.88
2022-09-12T17:11:27.072Z,16.60
2022-09-12T17:14:11.747Z,16.60
2022-09-12T17:16:42.272Z,16.52
2022-09-12T17:19:12.818Z,16.46
2022-09-12T17:21:39.519Z,16.35
2022-09-12T17:24:06.362Z,16.35
2022-09-12T17:26:33.159Z,16.16
2022-09-12T17:29:00.995Z,16.11
2022-09-12T17:31:27.890Z,16.28
2022-09-12T17:33:59.129Z,16.22
2022-09-12T17:36:27.099Z,16.21
2022-09-12T17:38:54.459Z,16.08
2022-09-12T17:41:23.960Z,16.07
2022-09-12T17:43:55.695Z,16.21
2022-09-12T17:46:24.528Z,16.08
2022-09-12T17:48:53.586Z,16.09
2022-09-12T17:51:22.085Z,16.21
2022-09-12T17:53:49.338Z,16.12
2022-09-12T17:56:15.986Z,15.86
2022-09-12T17:58:42.899Z,15.92
2022-09-12T18:01:33.248Z,15.64
2022-09-12T18:04:01.151Z,15.84
2022-09-12T18:06:29.230Z,15.74
2022-09-12T18:08:55.966Z,15.64
2022-09-12T18:11:22.988Z,15.58
2022-09-12T18:13:50.676Z,15.19
2022-09-12T18:16:17.868Z,15.16
2022-09-12T18:18:44.558Z,15.15
2022-09-12T18:21:12.344Z,15.11
2022-09-12T18:23:39.485Z,14.99
2022-09-12T18:26:09.363Z,15.21
2022-09-12T18:28:38.309Z,15.30
2022-09-12T18:31:11.249Z,15.43
2022-09-12T18:33:38.286Z,15.52
2022-09-12T18:36:06.023Z,15.63
2022-09-12T18:38:33.288Z,15.55
2022-09-12T18:41:05.632Z,15.47
2022-09-12T18:43:32.678Z,15.36
2022-09-12T18:46:06.484Z,15.45
2022-09-12T18:48:34.392Z,15.48
2022-09-12T18:51:18.451Z,15.41
2022-09-12T18:53:54.302Z,15.51
2022-09-12T18:56:22.320Z,15.52
2022-09-12T18:58:53.566Z,15.41
2022-09-12T19:01:25.735Z,15.41
2022-09-12T19:03:53.658Z,15.45
2022-09-12T19:06:23.055Z,15.50
2022-09-12T19:08:50.927Z,15.41
2022-09-12T19:11:18.779Z,15.31
2022-09-12T19:13:47.341Z,15.30
2022-09-12T19:16:17.621Z,15.30
2022-09-12T19:18:44.519Z,15.26
2022-09-12T19:21:15.843Z,15.15
2022-09-12T19:23:42.759Z,14.80
2022-09-12T19:26:11.946Z,14.84
2022-09-12T19:28:39.327Z,14.75
2022-09-12T19:31:07.818Z,14.77
2022-09-12T19:33:35.195Z,14.79
2022-09-12T19:36:17.521Z,14.73
2022-09-12T19:38:53.477Z,14.73
2022-09-12T19:41:20.716Z,14.64
2022-09-12T19:43:47.572Z,14.58
2022-09-12T19:46:17.426Z,14.52
2022-09-12T19:48:45.085Z,14.44
2022-09-12T19:51:12.591Z,14.52
2022-09-12T19:53:39.661Z,14.52
2022-09-12T19:56:08.915Z,14.47
2022-09-12T19:58:41.181Z,14.45
2022-09-12T20:01:16.470Z,14.58
2022-09-12T20:03:44.611Z,14.39
2022-09-12T20:06:14.338Z,14.39
2022-09-12T20:08:42.420Z,14.32
2022-09-12T20:11:10.651Z,14.20
2022-09-12T20:13:37.588Z,14.34
2022-09-12T20:16:12.102Z,14.12
2022-09-12T20:18:39.062Z,13.68
2022-09-12T20:21:31.628Z,13.91
2022-09-12T20:24:07.659Z,14.03
2022-09-12T20:26:34.769Z,14.08
2022-09-12T20:29:01.885Z,14.18
2022-09-12T20:31:28.904Z,14.00
2022-09-12T20:33:56.060Z,14.08
2022-09-12T20:36:23.125Z,14.16
2022-09-12T20:38:52.429Z,14.05
2022-09-12T20:41:20.625Z,14.06
2022-09-12T20:43:55.032Z,14.09
2022-09-12T20:46:22.920Z,14.17
2022-09-12T20:48:51.208Z,13.93
2022-09-12T20:51:19.243Z,13.91
2022-09-12T20:53:46.049Z,13.95
2022-09-12T20:56:12.821Z,13.79
2022-09-12T20:58:43.709Z,13.67
2022-09-12T21:01:12.214Z,13.61
2022-09-12T21:03:40.366Z,13.51
2022-09-12T21:06:08.974Z,13.52
2022-09-12T21:08:37.313Z,13.54
2022-09-12T21:11:04.448Z,13.47
2022-09-12T21:13:31.203Z,13.46
2022-09-12T21:16:10.275Z,13.21
2022-09-12T21:18:37.389Z,12.93
2022-09-12T21:21:05.419Z,12.84
2022-09-12T21:23:33.765Z,12.62
2022-09-12T21:26:01.545Z,12.73
2022-09-12T21:28:28.733Z,12.66
2022-09-12T21:30:56.255Z,12.72
2022-09-12T21:33:23.526Z,12.67
2022-09-12T21:35:50.444Z,12.48
2022-09-12T21:38:18.876Z,12.54
2022-09-12T21:40:46.796Z,12.33
2022-09-12T21:43:14.226Z,12.25
2022-09-12T21:45:40.898Z,12.38
2022-09-12T21:48:07.869Z,12.25
2022-09-12T21:50:34.564Z,12.41
2022-09-12T21:53:01.182Z,12.38
2022-09-12T21:55:28.165Z,12.41
2022-09-12T21:57:55.169Z,12.41
2022-09-12T22:00:22.558Z,12.10
2022-09-12T22:02:49.338Z,12.13
2022-09-12T22:05:16.810Z,12.21
2022-09-12T22:07:43.544Z,12.25
2022-09-12T22:10:10.774Z,12.18
2022-09-12T22:12:37.511Z,12.19
2022-09-12T22:15:23.005Z,12.02
2022-09-12T22:17:51.916Z,11.96
2022-09-12T22:20:18.771Z,11.98
2022-09-12T22:23:03.865Z,12.02
2022-09-12T22:25:30.755Z,11.96
2022-09-12T22:27:58.281Z,11.79
2022-09-12T22:30:27.383Z,11.89
2022-09-12T22:32:54.513Z,11.81
2022-09-12T22:35:21.130Z,11.88
2022-09-12T22:37:47.992Z,11.97
2022-09-12T22:40:15.763Z,11.52
2022-09-12T22:42:42.840Z,11.73
2022-09-12T22:45:10.047Z,11.76
2022-09-12T22:47:36.808Z,11.71
2022-09-12T22:50:04.063Z,11.60
2022-09-12T22:52:30.684Z,11.56
2022-09-12T22:54:57.298Z,11.41
2022-09-12T22:57:24.031Z,11.45
2022-09-12T22:59:50.659Z,11.30
2022-09-12T23:02:17.351Z,11.12
2022-09-12T23:04:44.228Z,11.14
2022-09-12T23:07:11.099Z,10.97
2022-09-12T23:09:37.766Z,11.23
2022-09-12T23:12:04.536Z,10.94
2022-09-12T23:14:31.202Z,10.78
2022-09-12T23:16:57.875Z,11.07
2022-09-12T23:19:24.557Z,11.04
2022-09-12T23:21:51.324Z,11.00
2022-09-12T23:24:18.532Z,10.92
2022-09-12T23:26:45.260Z,11.06
2022-09-12T23:29:11.923Z,10.75
2022-09-12T23:31:38.918Z,10.75
2022-09-12T23:34:06.247Z,10.66
2022-09-12T23:36:34.267Z,10.92
2022-09-12T23:39:01.806Z,10.77
2022-09-12T23:41:28.588Z,10.94
2022-09-12T23:43:55.322Z,11.07
2022-09-12T23:46:22.218Z,11.00
2022-09-12T23:48:49.492Z,11.23
2022-09-12T23:51:16.516Z,11.24
2022-09-12T23:53:43.492Z,11.19
2022-09-12T23:56:10.858Z,10.63
2022-09-12T23:58:37.601Z,10.68
